sensor_id;sensor_type;location;lat;lon;timestamp;pressure;altitude;pressure_sealevel;temperature;humidity
42067;BME280;27734;47.028;28.820;2023-11-21T00:01:10;100052.50;;;4.02;74.86
42067;BME280;27734;47.028;28.820;2023-11-21T00:03:43;100051.58;;;4.02;75.18
42067;BME280;27734;47.028;28.820;2023-11-21T00:06:14;100057.61;;;4.01;75.19
42067;BME280;27734;47.028;28.820;2023-11-21T00:08:46;100044.54;;;3.99;74.57
42067;BME280;27734;47.028;28.820;2023-11-21T00:11:18;100047.77;;;3.95;74.92
42067;BME280;27734;47.028;28.820;2023-11-21T00:13:49;100042.48;;;3.93;74.76
42067;BME280;27734;47.028;28.820;2023-11-21T00:16:20;100046.72;;;3.91;74.96
42067;BME280;27734;47.028;28.820;2023-11-21T00:18:52;100041.44;;;3.90;75.21
42067;BME280;27734;47.028;28.820;2023-11-21T00:21:23;100042.23;;;3.89;75.33
42067;BME280;27734;47.028;28.820;2023-11-21T00:23:55;100031.77;;;3.87;75.52
42067;BME280;27734;47.028;28.820;2023-11-21T00:26:26;100021.22;;;3.84;75.16
42067;BME280;27734;47.028;28.820;2023-11-21T00:29:03;100029.72;;;3.82;74.88
42067;BME280;27734;47.028;28.820;2023-11-21T00:31:36;100040.02;;;3.80;75.20
42067;BME280;27734;47.028;28.820;2023-11-21T00:34:11;100041.73;;;3.80;75.39
42067;BME280;27734;47.028;28.820;2023-11-21T00:36:43;100057.30;;;3.80;75.45
42067;BME280;27734;47.028;28.820;2023-11-21T00:39:14;100051.23;;;3.79;75.53
42067;BME280;27734;47.028;28.820;2023-11-21T00:41:46;100046.03;;;3.79;76.03
42067;BME280;27734;47.028;28.820;2023-11-21T00:44:18;100033.06;;;3.79;75.48
42067;BME280;27734;47.028;28.820;2023-11-21T00:46:57;100042.61;;;3.80;75.61
42067;BME280;27734;47.028;28.820;2023-11-21T00:49:28;100055.59;;;3.80;75.48
42067;BME280;27734;47.028;28.820;2023-11-21T00:52:00;100052.02;;;3.78;75.33
42067;BME280;27734;47.028;28.820;2023-11-21T00:54:32;100049.43;;;3.78;75.95
42067;BME280;27734;47.028;28.820;2023-11-21T00:57:04;100062.41;;;3.78;75.94
42067;BME280;27734;47.028;28.820;2023-11-21T00:59:36;100061.61;;;3.79;76.03
42067;BME280;27734;47.028;28.820;2023-11-21T01:02:07;100055.59;;;3.80;75.85
42067;BME280;27734;47.028;28.820;2023-11-21T01:04:40;100062.58;;;3.81;75.49
42067;BME280;27734;47.028;28.820;2023-11-21T01:07:12;100053.16;;;3.83;75.65
42067;BME280;27734;47.028;28.820;2023-11-21T01:09:43;100050.56;;;3.83;76.15
42067;BME280;27734;47.028;28.820;2023-11-21T01:12:15;100055.84;;;3.85;76.28
42067;BME280;27734;47.028;28.820;2023-11-21T01:14:47;100058.52;;;3.86;75.99
42067;BME280;27734;47.028;28.820;2023-11-21T01:17:19;100058.52;;;3.86;76.16
42067;BME280;27734;47.028;28.820;2023-11-21T01:19:52;100057.73;;;3.87;75.95
42067;BME280;27734;47.028;28.820;2023-11-21T01:22:23;100051.73;;;3.88;75.71
42067;BME280;27734;47.028;28.820;2023-11-21T01:24:57;100047.34;;;3.87;76.38
42067;BME280;27734;47.028;28.820;2023-11-21T01:27:28;100048.14;;;3.86;76.64
42067;BME280;27734;47.028;28.820;2023-11-21T01:30:00;100039.47;;;3.86;76.37
42067;BME280;27734;47.028;28.820;2023-11-21T01:32:31;100029.01;;;3.84;76.08
42067;BME280;27734;47.028;28.820;2023-11-21T01:35:04;100034.20;;;3.84;76.60
42067;BME280;27734;47.028;28.820;2023-11-21T01:37:36;100045.45;;;3.85;76.12
42067;BME280;27734;47.028;28.820;2023-11-21T01:40:10;100030.64;;;3.82;76.19
42067;BME280;27734;47.028;28.820;2023-11-21T01:42:44;100027.04;;;3.80;76.46
42067;BME280;27734;47.028;28.820;2023-11-21T01:45:17;100029.63;;;3.80;76.91
42067;BME280;27734;47.028;28.820;2023-11-21T01:47:49;100023.56;;;3.80;76.47
42067;BME280;27734;47.028;28.820;2023-11-21T01:50:20;100020.09;;;3.79;76.32
42067;BME280;27734;47.028;28.820;2023-11-21T01:52:53;100020.80;;;3.76;76.62
42067;BME280;27734;47.028;28.820;2023-11-21T01:55:24;100019.08;;;3.77;76.49
42067;BME280;27734;47.028;28.820;2023-11-21T01:57:58;100014.72;;;3.76;77.04
42067;BME280;27734;47.028;28.820;2023-11-21T02:00:30;100025.91;;;3.75;76.32
42067;BME280;27734;47.028;28.820;2023-11-21T02:03:03;100024.94;;;3.73;77.12
42067;BME280;27734;47.028;28.820;2023-11-21T02:05:34;100031.00;;;3.73;76.88
42067;BME280;27734;47.028;28.820;2023-11-21T02:08:06;100025.73;;;3.72;76.69
42067;BME280;27734;47.028;28.820;2023-11-21T02:10:39;100039.50;;;3.71;76.49
42067;BME280;27734;47.028;28.820;2023-11-21T02:13:10;100047.29;;;3.71;77.26
42067;BME280;27734;47.028;28.820;2023-11-21T02:15:42;100050.71;;;3.70;76.75
42067;BME280;27734;47.028;28.820;2023-11-21T02:18:14;100045.52;;;3.70;77.32
42067;BME280;27734;47.028;28.820;2023-11-21T02:20:45;100044.69;;;3.71;77.51
42067;BME280;27734;47.028;28.820;2023-11-21T02:23:17;100049.80;;;3.69;76.78
42067;BME280;27734;47.028;28.820;2023-11-21T02:25:48;100043.81;;;3.70;77.17
42067;BME280;27734;47.028;28.820;2023-11-21T02:28:20;100046.41;;;3.70;77.22
42067;BME280;27734;47.028;28.820;2023-11-21T02:30:56;100044.61;;;3.69;77.09
42067;BME280;27734;47.028;28.820;2023-11-21T02:33:29;100042.92;;;3.70;77.33
42067;BME280;27734;47.028;28.820;2023-11-21T02:36:04;100044.55;;;3.68;77.04
42067;BME280;27734;47.028;28.820;2023-11-21T02:38:36;100053.05;;;3.65;77.48
42067;BME280;27734;47.028;28.820;2023-11-21T02:41:07;100059.95;;;3.65;77.07
42067;BME280;27734;47.028;28.820;2023-11-21T02:43:39;100060.84;;;3.65;77.19
42067;BME280;27734;47.028;28.820;2023-11-21T02:46:11;100061.72;;;3.66;77.14
42067;BME280;27734;47.028;28.820;2023-11-21T02:48:43;100052.17;;;3.65;77.17
42067;BME280;27734;47.028;28.820;2023-11-21T02:51:15;100051.25;;;3.64;77.93
42067;BME280;27734;47.028;28.820;2023-11-21T02:53:46;100050.45;;;3.65;77.96
42067;BME280;27734;47.028;28.820;2023-11-21T02:56:18;100053.84;;;3.64;77.60
42067;BME280;27734;47.028;28.820;2023-11-21T02:58:50;100046.06;;;3.64;77.51
42067;BME280;27734;47.028;28.820;2023-11-21T03:01:21;100061.63;;;3.64;77.72
42067;BME280;27734;47.028;28.820;2023-11-21T03:03:53;100052.17;;;3.65;78.07
42067;BME280;27734;47.028;28.820;2023-11-21T03:06:25;100046.06;;;3.64;78.20
42067;BME280;27734;47.028;28.820;2023-11-21T03:08:57;100048.66;;;3.64;77.69
42067;BME280;27734;47.028;28.820;2023-11-21T03:11:28;100056.35;;;3.63;78.02
42067;BME280;27734;47.028;28.820;2023-11-21T03:13:59;100051.25;;;3.64;77.95
42067;BME280;27734;47.028;28.820;2023-11-21T03:16:31;100054.77;;;3.65;78.26
42067;BME280;27734;47.028;28.820;2023-11-21T03:19:03;100052.17;;;3.65;78.31
42067;BME280;27734;47.028;28.820;2023-11-21T03:21:35;100049.57;;;3.65;77.58
42067;BME280;27734;47.028;28.820;2023-11-21T03:24:09;100053.94;;;3.66;78.57
42067;BME280;27734;47.028;28.820;2023-11-21T03:26:41;100053.14;;;3.67;78.10
42067;BME280;27734;47.028;28.820;2023-11-21T03:29:12;100066.11;;;3.67;78.33
42067;BME280;27734;47.028;28.820;2023-11-21T03:31:44;100062.72;;;3.68;77.94
42067;BME280;27734;47.028;28.820;2023-11-21T03:34:19;100059.30;;;3.69;78.28
42067;BME280;27734;47.028;28.820;2023-11-21T03:36:51;100068.88;;;3.70;78.32
42067;BME280;27734;47.028;28.820;2023-11-21T03:39:22;100063.77;;;3.71;78.68
42067;BME280;27734;47.028;28.820;2023-11-21T03:41:55;100075.75;;;3.69;78.34
42067;BME280;27734;47.028;28.820;2023-11-21T03:44:27;100076.66;;;3.70;78.49
42067;BME280;27734;47.028;28.820;2023-11-21T03:46:58;100076.48;;;3.67;78.43
42067;BME280;27734;47.028;28.820;2023-11-21T03:49:30;100073.81;;;3.65;78.32
42067;BME280;27734;47.028;28.820;2023-11-21T03:52:01;100072.09;;;3.66;78.62
42067;BME280;27734;47.028;28.820;2023-11-21T03:54:36;100060.92;;;3.67;78.78
42067;BME280;27734;47.028;28.820;2023-11-21T03:57:07;100059.30;;;3.69;78.42
42067;BME280;27734;47.028;28.820;2023-11-21T03:59:42;100063.69;;;3.70;78.58
42067;BME280;27734;47.028;28.820;2023-11-21T04:02:14;100061.09;;;3.70;78.28
42067;BME280;27734;47.028;28.820;2023-11-21T04:04:45;100059.30;;;3.69;78.55
42067;BME280;27734;47.028;28.820;2023-11-21T04:07:17;100065.37;;;3.69;78.87
42067;BME280;27734;47.028;28.820;2023-11-21T04:09:48;100073.09;;;3.68;78.39
42067;BME280;27734;47.028;28.820;2023-11-21T04:12:20;100078.29;;;3.68;78.42
42067;BME280;27734;47.028;28.820;2023-11-21T04:14:51;100091.27;;;3.68;79.02
42067;BME280;27734;47.028;28.820;2023-11-21T04:17:23;100083.30;;;3.65;79.39
42067;BME280;27734;47.028;28.820;2023-11-21T04:19:54;100089.29;;;3.64;78.54
42067;BME280;27734;47.028;28.820;2023-11-21T04:22:26;100092.68;;;3.63;79.42
42067;BME280;27734;47.028;28.820;2023-11-21T04:24:57;100077.94;;;3.62;78.70
42067;BME280;27734;47.028;28.820;2023-11-21T04:27:29;100070.95;;;3.60;79.55
42067;BME280;27734;47.028;28.820;2023-11-21T04:30:00;100076.05;;;3.59;79.10
42067;BME280;27734;47.028;28.820;2023-11-21T04:32:32;100074.17;;;3.56;79.52
42067;BME280;27734;47.028;28.820;2023-11-21T04:35:04;100089.65;;;3.55;79.60
42067;BME280;27734;47.028;28.820;2023-11-21T04:37:35;100089.65;;;3.55;79.54
42067;BME280;27734;47.028;28.820;2023-11-21T04:40:09;100092.24;;;3.55;79.19
42067;BME280;27734;47.028;28.820;2023-11-21T04:42:41;100086.97;;;3.53;79.32
42067;BME280;27734;47.028;28.820;2023-11-21T04:45:12;100089.56;;;3.53;79.20
42067;BME280;27734;47.028;28.820;2023-11-21T04:47:46;100096.45;;;3.53;79.83
42067;BME280;27734;47.028;28.820;2023-11-21T04:50:18;100097.34;;;3.53;79.02
42067;BME280;27734;47.028;28.820;2023-11-21T04:52:50;100098.27;;;3.54;79.51
42067;BME280;27734;47.028;28.820;2023-11-21T04:55:21;100100.03;;;3.55;79.77
42067;BME280;27734;47.028;28.820;2023-11-21T04:57:53;100099.14;;;3.54;80.17
42067;BME280;27734;47.028;28.820;2023-11-21T05:00:30;100100.03;;;3.55;79.68
42067;BME280;27734;47.028;28.820;2023-11-21T05:03:04;100096.72;;;3.57;79.62
42067;BME280;27734;47.028;28.820;2023-11-21T05:05:37;100113.17;;;3.58;80.02
42067;BME280;27734;47.028;28.820;2023-11-21T05:08:08;100115.86;;;3.59;79.78
42067;BME280;27734;47.028;28.820;2023-11-21T05:10:40;100115.15;;;3.62;80.29
42067;BME280;27734;47.028;28.820;2023-11-21T05:13:11;100123.02;;;3.64;80.25
42067;BME280;27734;47.028;28.820;2023-11-21T05:15:43;100120.52;;;3.65;79.93
42067;BME280;27734;47.028;28.820;2023-11-21T05:18:14;100116.30;;;3.67;80.08
42067;BME280;27734;47.028;28.820;2023-11-21T05:20:46;100116.47;;;3.70;80.32
42067;BME280;27734;47.028;28.820;2023-11-21T05:23:17;100108.77;;;3.72;79.96
42067;BME280;27734;47.028;28.820;2023-11-21T05:25:49;100116.64;;;3.73;80.45
42067;BME280;27734;47.028;28.820;2023-11-21T05:28:20;100108.95;;;3.75;79.99
42067;BME280;27734;47.028;28.820;2023-11-21T05:30:52;100110.75;;;3.76;80.20
42067;BME280;27734;47.028;28.820;2023-11-21T05:33:23;100110.66;;;3.74;80.12
42067;BME280;27734;47.028;28.820;2023-11-21T05:35:55;100108.95;;;3.75;80.30
42067;BME280;27734;47.028;28.820;2023-11-21T05:38:26;100109.83;;;3.75;80.06
42067;BME280;27734;47.028;28.820;2023-11-21T05:40:58;100118.53;;;3.76;80.65
42067;BME280;27734;47.028;28.820;2023-11-21T05:43:29;100119.41;;;3.76;80.26
42067;BME280;27734;47.028;28.820;2023-11-21T05:46:05;100107.23;;;3.75;80.29
42067;BME280;27734;47.028;28.820;2023-11-21T05:48:37;100110.92;;;3.79;80.66
42067;BME280;27734;47.028;28.820;2023-11-21T05:51:09;100102.48;;;3.83;80.55
42067;BME280;27734;47.028;28.820;2023-11-21T05:53:42;100101.06;;;3.88;80.69
42067;BME280;27734;47.028;28.820;2023-11-21T05:56:13;100113.38;;;3.92;80.97
42067;BME280;27734;47.028;28.820;2023-11-21T05:58:46;100115.17;;;3.93;80.90
42067;BME280;27734;47.028;28.820;2023-11-21T06:01:18;100105.05;;;3.98;81.03
42067;BME280;27734;47.028;28.820;2023-11-21T06:03:49;100100.91;;;4.02;81.13
42067;BME280;27734;47.028;28.820;2023-11-21T06:06:21;100110.50;;;4.03;81.41
42067;BME280;27734;47.028;28.820;2023-11-21T06:08:54;100115.86;;;4.06;81.37
42067;BME280;27734;47.028;28.820;2023-11-21T06:11:32;100121.31;;;4.10;81.08
42067;BME280;27734;47.028;28.820;2023-11-21T06:14:04;100118.80;;;4.12;81.44
42067;BME280;27734;47.028;28.820;2023-11-21T06:16:38;100119.05;;;4.17;81.02
42067;BME280;27734;47.028;28.820;2023-11-21T06:19:16;100115.88;;;4.22;80.98
42067;BME280;27734;47.028;28.820;2023-11-21T06:21:49;100119.64;;;4.27;81.11
42067;BME280;27734;47.028;28.820;2023-11-21T06:24:21;100127.94;;;4.37;81.28
42067;BME280;27734;47.028;28.820;2023-11-21T06:26:58;100137.12;;;4.46;81.42
42067;BME280;27734;47.028;28.820;2023-11-21T06:29:32;100131.45;;;4.54;81.73
42067;BME280;27734;47.028;28.820;2023-11-21T06:32:14;100128.44;;;4.62;81.18
42067;BME280;27734;47.028;28.820;2023-11-21T06:34:46;100128.84;;;4.70;81.55
42067;BME280;27734;47.028;28.820;2023-11-21T06:37:17;100129.97;;;4.75;81.74
42067;BME280;27734;47.028;28.820;2023-11-21T06:39:51;100143.30;;;4.81;81.88
42067;BME280;27734;47.028;28.820;2023-11-21T06:42:24;100147.94;;;4.87;81.62
42067;BME280;27734;47.028;28.820;2023-11-21T06:45:00;100159.47;;;4.92;81.55
42067;BME280;27734;47.028;28.820;2023-11-21T06:47:34;100158.83;;;4.96;81.97
42067;BME280;27734;47.028;28.820;2023-11-21T06:50:20;100160.70;;;4.99;81.94
42067;BME280;27734;47.028;28.820;2023-11-21T06:52:52;100157.43;;;5.03;82.09
42067;BME280;27734;47.028;28.820;2023-11-21T06:55:27;100157.52;;;5.04;81.80
42067;BME280;27734;47.028;28.820;2023-11-21T06:57:59;100158.42;;;5.05;81.94
42067;BME280;27734;47.028;28.820;2023-11-21T07:00:32;100163.88;;;5.10;81.89
42067;BME280;27734;47.028;28.820;2023-11-21T07:03:04;100163.27;;;5.15;82.45
42067;BME280;27734;47.028;28.820;2023-11-21T07:05:39;100164.34;;;5.19;82.08
42067;BME280;27734;47.028;28.820;2023-11-21T07:08:14;100168.07;;;5.24;81.94
42067;BME280;27734;47.028;28.820;2023-11-21T07:11:05;100165.79;;;5.30;81.89
42067;BME280;27734;47.028;28.820;2023-11-21T07:13:38;100173.91;;;5.36;82.33
42067;BME280;27734;47.028;28.820;2023-11-21T07:16:13;100167.30;;;5.43;82.01
42067;BME280;27734;47.028;28.820;2023-11-21T07:18:46;100159.73;;;5.48;82.39
42067;BME280;27734;47.028;28.820;2023-11-21T07:21:19;100163.44;;;5.53;82.59
42067;BME280;27734;47.028;28.820;2023-11-21T07:23:51;100143.77;;;5.58;82.15
42067;BME280;27734;47.028;28.820;2023-11-21T07:26:24;100151.88;;;5.64;82.18
42067;BME280;27734;47.028;28.820;2023-11-21T07:28:59;100154.80;;;5.70;82.20
42067;BME280;27734;47.028;28.820;2023-11-21T07:31:37;100165.36;;;5.73;82.20
42067;BME280;27734;47.028;28.820;2023-11-21T07:34:13;100161.03;;;5.74;82.05
42067;BME280;27734;47.028;28.820;2023-11-21T07:37:00;100163.64;;;5.74;81.87
42067;BME280;27734;47.028;28.820;2023-11-21T07:39:45;100163.72;;;5.75;81.57
42067;BME280;27734;47.028;28.820;2023-11-21T07:42:17;100159.39;;;5.76;82.10
42067;BME280;27734;47.028;28.820;2023-11-21T07:44:49;100165.59;;;5.78;82.25
42067;BME280;27734;47.028;28.820;2023-11-21T07:50:41;100162.98;;;5.78;82.09
42067;BME280;27734;47.028;28.820;2023-11-21T07:53:19;100155.22;;;5.80;82.07
42067;BME280;27734;47.028;28.820;2023-11-21T07:56:00;100150.16;;;5.83;81.72
42067;BME280;27734;47.028;28.820;2023-11-21T07:58:36;100144.15;;;5.84;82.03
42067;BME280;27734;47.028;28.820;2023-11-21T08:01:08;100139.75;;;5.83;82.26
42067;BME280;27734;47.028;28.820;2023-11-21T08:03:42;100142.42;;;5.84;81.89
42067;BME280;27734;47.028;28.820;2023-11-21T08:06:13;100153.75;;;5.85;81.85
42067;BME280;27734;47.028;28.820;2023-11-21T08:08:48;100149.43;;;5.85;81.77
42067;BME280;27734;47.028;28.820;2023-11-21T08:11:21;100146.02;;;5.86;81.58
42067;BME280;27734;47.028;28.820;2023-11-21T08:14:09;100147.94;;;5.90;81.99
42067;BME280;27734;47.028;28.820;2023-11-21T08:16:48;100151.68;;;5.96;82.18
42067;BME280;27734;47.028;28.820;2023-11-21T08:19:26;100145.89;;;6.01;81.93
42067;BME280;27734;47.028;28.820;2023-11-21T08:21:57;100149.70;;;6.08;82.19
42067;BME280;27734;47.028;28.820;2023-11-21T08:24:29;100146.47;;;6.14;82.16
42067;BME280;27734;47.028;28.820;2023-11-21T08:27:01;100149.37;;;6.20;81.62
42067;BME280;27734;47.028;28.820;2023-11-21T08:29:35;100157.41;;;6.24;81.85
42067;BME280;27734;47.028;28.820;2023-11-21T08:32:09;100160.16;;;6.27;82.07
42067;BME280;27734;47.028;28.820;2023-11-21T08:34:41;100164.78;;;6.33;82.01
42067;BME280;27734;47.028;28.820;2023-11-21T08:37:18;100165.22;;;6.42;82.03
42067;BME280;27734;47.028;28.820;2023-11-21T08:39:53;100166.39;;;6.49;82.16
42067;BME280;27734;47.028;28.820;2023-11-21T08:42:31;100171.89;;;6.55;82.03
42067;BME280;27734;47.028;28.820;2023-11-21T08:45:09;100177.31;;;6.60;81.53
42067;BME280;27734;47.028;28.820;2023-11-21T08:47:44;100176.65;;;6.64;81.74
42067;BME280;27734;47.028;28.820;2023-11-21T08:50:24;100167.23;;;6.68;82.08
42067;BME280;27734;47.028;28.820;2023-11-21T08:53:01;100169.98;;;6.71;81.97
42067;BME280;27734;47.028;28.820;2023-11-21T08:55:34;100172.73;;;6.74;81.98
42067;BME280;27734;47.028;28.820;2023-11-21T08:58:09;100174.53;;;6.75;81.65
42067;BME280;27734;47.028;28.820;2023-11-21T09:00:52;100173.63;;;6.74;81.46
42067;BME280;27734;47.028;28.820;2023-11-21T09:03:30;100168.41;;;6.74;82.14
42067;BME280;27734;47.028;28.820;2023-11-21T09:06:05;100160.66;;;6.76;81.37
42067;BME280;27734;47.028;28.820;2023-11-21T09:08:48;100147.69;;;6.77;81.77
42067;BME280;27734;47.028;28.820;2023-11-21T09:11:20;100152.09;;;6.78;81.68
42067;BME280;27734;47.028;28.820;2023-11-21T09:14:36;100141.66;;;6.78;81.33
42067;BME280;27734;47.028;28.820;2023-11-21T09:17:16;100143.83;;;6.89;81.83
42067;BME280;27734;47.028;28.820;2023-11-21T09:22:58;100135.81;;;7.04;81.57
42067;BME280;27734;47.028;28.820;2023-11-21T09:25:31;100130.86;;;7.10;81.38
42067;BME280;27734;47.028;28.820;2023-11-21T09:28:05;100129.20;;;7.12;81.41
42067;BME280;27734;47.028;28.820;2023-11-21T09:30:38;100130.25;;;7.15;81.53
42067;BME280;27734;47.028;28.820;2023-11-21T09:33:11;100128.45;;;7.14;81.29
42067;BME280;27734;47.028;28.820;2023-11-21T09:35:44;100123.50;;;7.20;81.39
42067;BME280;27734;47.028;28.820;2023-11-21T09:38:16;100127.06;;;7.23;81.11
42067;BME280;27734;47.028;28.820;2023-11-21T09:40:50;100126.31;;;7.25;81.14
42067;BME280;27734;47.028;28.820;2023-11-21T09:43:33;100129.25;;;7.33;81.39
42067;BME280;27734;47.028;28.820;2023-11-21T09:46:07;100124.29;;;7.39;80.87
42067;BME280;27734;47.028;28.820;2023-11-21T09:48:55;100123.95;;;7.52;82.24
42067;BME280;27734;47.028;28.820;2023-11-21T09:51:31;100119.38;;;7.68;81.72
42067;BME280;27734;47.028;28.820;2023-11-21T09:54:13;100112.30;;;7.86;81.39
42067;BME280;27734;47.028;28.820;2023-11-21T09:56:46;100105.07;;;8.02;81.42
42067;BME280;27734;47.028;28.820;2023-11-21T09:59:27;100102.94;;;8.14;81.57
42067;BME280;27734;47.028;28.820;2023-11-21T10:02:05;100111.27;;;8.26;81.32
42067;BME280;27734;47.028;28.820;2023-11-21T10:04:46;100105.69;;;8.40;80.79
42067;BME280;27734;47.028;28.820;2023-11-21T10:07:28;100101.03;;;8.55;80.96
42067;BME280;27734;47.028;28.820;2023-11-21T10:10:09;100103.29;;;8.69;80.89
42067;BME280;27734;47.028;28.820;2023-11-21T10:12:56;100098.34;;;8.76;80.49
42067;BME280;27734;47.028;28.820;2023-11-21T10:15:33;100102.06;;;8.83;80.82
42067;BME280;27734;47.028;28.820;2023-11-21T10:18:24;100103.91;;;8.86;80.62
42067;BME280;27734;47.028;28.820;2023-11-21T10:21:06;100092.50;;;8.84;81.09
42067;BME280;27734;47.028;28.820;2023-11-21T10:23:43;100092.50;;;8.84;80.74
42067;BME280;27734;47.028;28.820;2023-11-21T10:26:18;100097.69;;;8.82;80.42
42067;BME280;27734;47.028;28.820;2023-11-21T10:28:59;100096.59;;;8.77;80.64
42067;BME280;27734;47.028;28.820;2023-11-21T10:31:31;100090.38;;;8.73;80.24
42067;BME280;27734;47.028;28.820;2023-11-21T10:34:20;100086.60;;;8.65;79.92
42067;BME280;27734;47.028;28.820;2023-11-21T10:36:55;100081.85;;;8.55;80.34
42067;BME280;27734;47.028;28.820;2023-11-21T10:39:40;100080.00;;;8.52;80.18
42067;BME280;27734;47.028;28.820;2023-11-21T10:42:21;100088.70;;;8.51;79.65
42067;BME280;27734;47.028;28.820;2023-11-21T10:45:03;100096.55;;;8.51;79.63
42067;BME280;27734;47.028;28.820;2023-11-21T10:50:54;100104.89;;;8.42;79.71
42067;BME280;27734;47.028;28.820;2023-11-21T10:53:42;100111.94;;;8.43;80.04
42067;BME280;27734;47.028;28.820;2023-11-21T10:59:43;100100.54;;;8.43;79.68
42067;BME280;27734;47.028;28.820;2023-11-21T11:02:24;100095.31;;;8.43;79.80
42067;BME280;27734;47.028;28.820;2023-11-21T11:04:58;100097.25;;;8.47;79.67
42067;BME280;27734;47.028;28.820;2023-11-21T11:07:30;100088.64;;;8.50;80.03
42067;BME280;27734;47.028;28.820;2023-11-21T11:13:01;100095.75;;;8.54;79.30
42067;BME280;27734;47.028;28.820;2023-11-21T11:15:38;100094.39;;;8.63;79.97
42067;BME280;27734;47.028;28.820;2023-11-21T11:18:11;100098.17;;;8.72;79.68
42067;BME280;27734;47.028;28.820;2023-11-21T11:20:47;100098.34;;;8.76;79.67
42067;BME280;27734;47.028;28.820;2023-11-21T11:23:36;100088.86;;;8.80;79.27
42067;BME280;27734;47.028;28.820;2023-11-21T11:26:20;100087.33;;;8.85;79.84
42067;BME280;27734;47.028;28.820;2023-11-21T11:29:08;100096.22;;;8.90;79.90
42067;BME280;27734;47.028;28.820;2023-11-21T11:34:54;100098.89;;;8.92;79.46
42067;BME280;27734;47.028;28.820;2023-11-21T11:37:37;100093.61;;;8.90;79.38
42067;BME280;27734;47.028;28.820;2023-11-21T11:40:22;100091.98;;;8.94;78.96
42067;BME280;27734;47.028;28.820;2023-11-21T11:43:10;100086.69;;;8.92;78.78
42067;BME280;27734;47.028;28.820;2023-11-21T11:46:10;100090.77;;;8.84;78.92
42067;BME280;27734;47.028;28.820;2023-11-21T11:50:07;100095.66;;;8.75;78.61
42067;BME280;27734;47.028;28.820;2023-11-21T11:53:18;100099.62;;;8.63;79.00
42067;BME280;27734;47.028;28.820;2023-11-21T11:56:22;100095.80;;;8.55;79.01
42067;BME280;27734;47.028;28.820;2023-11-21T11:59:00;100093.81;;;8.48;79.00
42067;BME280;27734;47.028;28.820;2023-11-21T12:01:41;100093.70;;;8.45;78.48
42067;BME280;27734;47.028;28.820;2023-11-21T12:04:49;100087.44;;;8.41;78.52
42067;BME280;27734;47.028;28.820;2023-11-21T12:07:27;100096.92;;;8.39;78.63
42067;BME280;27734;47.028;28.820;2023-11-21T12:10:16;100100.45;;;8.40;78.29
42067;BME280;27734;47.028;28.820;2023-11-21T12:12:56;100100.54;;;8.43;79.05
42067;BME280;27734;47.028;28.820;2023-11-21T12:15:39;100103.30;;;8.46;78.27
42067;BME280;27734;47.028;28.820;2023-11-21T12:18:19;100106.89;;;8.48;78.18
42067;BME280;27734;47.028;28.820;2023-11-21T12:20:59;100105.22;;;8.50;78.62
42067;BME280;27734;47.028;28.820;2023-11-21T12:23:44;100102.72;;;8.53;78.20
42067;BME280;27734;47.028;28.820;2023-11-21T12:26:20;100108.29;;;8.62;78.90
42067;BME280;27734;47.028;28.820;2023-11-21T12:28:59;100108.63;;;8.72;78.66
42067;BME280;27734;47.028;28.820;2023-11-21T12:31:41;100113.27;;;8.79;78.25
42067;BME280;27734;47.028;28.820;2023-11-21T12:34:33;100106.24;;;8.78;78.25
42067;BME280;27734;47.028;28.820;2023-11-21T12:37:10;100111.42;;;8.76;78.97
42067;BME280;27734;47.028;28.820;2023-11-21T12:39:59;100108.63;;;8.72;78.29
42067;BME280;27734;47.028;28.820;2023-11-21T12:42:41;100106.78;;;8.69;78.11
42067;BME280;27734;47.028;28.820;2023-11-21T12:45:27;100116.19;;;8.64;77.77
42067;BME280;27734;47.028;28.820;2023-11-21T12:48:23;100097.77;;;8.61;78.23
42067;BME280;27734;47.028;28.820;2023-11-21T12:51:07;100095.92;;;8.58;78.25
42067;BME280;27734;47.028;28.820;2023-11-21T12:53:57;100100.22;;;8.56;78.49
42067;BME280;27734;47.028;28.820;2023-11-21T12:56:54;100099.16;;;8.51;78.25
42067;BME280;27734;47.028;28.820;2023-11-21T12:59:50;100105.04;;;8.45;77.87
42067;BME280;27734;47.028;28.820;2023-11-21T13:02:34;100110.06;;;8.41;77.72
42067;BME280;27734;47.028;28.820;2023-11-21T13:05:31;100106.33;;;8.34;77.78
42067;BME280;27734;47.028;28.820;2023-11-21T13:08:28;100107.03;;;8.30;77.68
42067;BME280;27734;47.028;28.820;2023-11-21T13:11:22;100113.88;;;8.26;77.73
42067;BME280;27734;47.028;28.820;2023-11-21T13:14:17;100108.41;;;8.20;77.64
42067;BME280;27734;47.028;28.820;2023-11-21T13:16:54;100111.72;;;8.16;78.41
42067;BME280;27734;47.028;28.820;2023-11-21T13:19:32;100104.61;;;8.12;77.89
42067;BME280;27734;47.028;28.820;2023-11-21T13:22:13;100113.16;;;8.08;78.39
42067;BME280;27734;47.028;28.820;2023-11-21T13:24:51;100119.08;;;8.04;77.88
42067;BME280;27734;47.028;28.820;2023-11-21T13:27:33;100109.36;;;8.00;77.75
42067;BME280;27734;47.028;28.820;2023-11-21T13:30:12;100116.16;;;7.96;77.62
42067;BME280;27734;47.028;28.820;2023-11-21T13:32:56;100114.21;;;7.90;77.84
42067;BME280;27734;47.028;28.820;2023-11-21T13:35:51;100111.41;;;7.86;78.05
42067;BME280;27734;47.028;28.820;2023-11-21T13:38:30;100115.57;;;7.81;78.51
42067;BME280;27734;47.028;28.820;2023-11-21T13:41:15;100124.03;;;7.75;78.05
42067;BME280;27734;47.028;28.820;2023-11-21T13:43:54;100129.95;;;7.71;77.74
42067;BME280;27734;47.028;28.820;2023-11-21T13:46:38;100129.83;;;7.68;78.49
42067;BME280;27734;47.028;28.820;2023-11-21T13:49:27;100124.59;;;7.68;77.89
42067;BME280;27734;47.028;28.820;2023-11-21T13:52:22;100124.47;;;7.65;78.53
42067;BME280;27734;47.028;28.820;2023-11-21T13:55:02;100134.10;;;7.66;78.56
42067;BME280;27734;47.028;28.820;2023-11-21T13:57:42;100133.28;;;7.67;78.42